Parker, Illinois
Current Conditions -  °F | °C
As of 8:53 AM on Friday 28 Nov 2014 (Local Time) from KMTO Reporting Station
Scattered Clouds Scattered Clouds  
Wind Chill: 14°   Ceiling: Unl
Heat Index: 26°   Visibility: 10mi
Dew Point: 19°   Wind: 16mph
Humidity: 75%   Direction: 170°S
Pressure: 30.27"   Gusts: NA
Location:  39.4316°N, 88.0561°W
Report Text: KMTO 281453Z AUTO 17014KT 10SM SCT120 M03/M07 A3027 RMK AO2 SLP262 T10331072 58022
Loading
Personal Weather Stations






























Interactive Weather Map New forecast layout! Learn more

10-Day Weather Forecast

Advertisements
Track Severe Weather on mobile